Time;durP1;ratioP1;P1;durP2;ratioP2;P2;SDS_P1;SDS_P2;PMS_P1;PMS_P2;Temp;Humidity;BMP_temperature;BMP_pressure;BME280_temperature;BME280_humidity;BME280_pressure;Samples;Min_cycle;Max_cycle;Signal;HPM_P1;HPM_P2
2023/10/30 00:00:20;;;;;;;19.90;2.75;;;;;;;9.00;100.00;98359.09;4995164;28;20053;-68
2023/10/30 00:02:47;;;;;;;13.45;2.70;;;;;;;9.05;100.00;98361.38;4995250;28;20046;-69
2023/10/30 00:05:15;;;;;;;10.98;2.42;;;;;;;8.99;100.00;98367.84;4996112;28;20054;-69
2023/10/30 00:07:42;;;;;;;14.27;3.28;;;;;;;8.92;100.00;98361.38;4996297;28;20046;-69
2023/10/30 00:10:09;;;;;;;19.90;2.70;;;;;;;8.85;100.00;98355.75;4993690;28;20365;-69
2023/10/30 00:12:36;;;;;;;12.07;2.67;;;;;;;8.95;100.00;98366.38;4991763;28;20252;-69
2023/10/30 00:15:03;;;;;;;9.13;2.05;;;;;;;8.98;100.00;98365.34;4992894;28;20050;-69
2023/10/30 00:17:30;;;;;;;14.73;2.80;;;;;;;8.81;100.00;98356.06;4992882;28;20046;-69
2023/10/30 00:19:58;;;;;;;11.50;2.75;;;;;;;8.79;100.00;98371.00;4992988;28;20129;-69
2023/10/30 00:22:25;;;;;;;14.05;3.22;;;;;;;8.74;100.00;98379.94;4988492;28;20062;-69
2023/10/30 00:24:52;;;;;;;15.00;2.78;;;;;;;8.73;100.00;98378.28;4992308;28;20084;-69
2023/10/30 00:27:19;;;;;;;11.77;2.63;;;;;;;8.70;100.00;98367.22;4995169;28;20054;-69
2023/10/30 00:29:45;;;;;;;9.20;1.98;;;;;;;8.86;100.00;98374.84;4992834;28;20109;-69
2023/10/30 00:32:12;;;;;;;12.40;2.22;;;;;;;8.60;100.00;98372.22;4991447;28;20117;-69
2023/10/30 00:34:39;;;;;;;10.00;2.05;;;;;;;8.63;100.00;98379.03;4991960;28;20487;-69
2023/10/30 00:37:06;;;;;;;14.43;3.47;;;;;;;8.73;100.00;98367.88;4993769;28;20289;-69
2023/10/30 00:39:32;;;;;;;13.80;3.00;;;;;;;8.62;100.00;98372.94;4994169;28;20054;-69
2023/10/30 00:42:00;;;;;;;10.60;2.45;;;;;;;8.55;100.00;98367.34;4991141;28;20134;-69
2023/10/30 00:44:27;;;;;;;11.43;3.15;;;;;;;8.42;100.00;98366.47;4999453;28;20113;-69
2023/10/30 00:46:54;;;;;;;10.40;2.30;;;;;;;8.46;100.00;98373.13;4985458;28;20054;-69
2023/10/30 00:49:20;;;;;;;16.75;2.30;;;;;;;8.34;100.00;98371.34;4995031;28;20057;-69
2023/10/30 00:51:47;;;;;;;14.25;2.58;;;;;;;8.19;100.00;98373.16;4990759;28;20146;-68
2023/10/30 00:54:14;;;;;;;15.45;3.10;;;;;;;8.17;100.00;98383.69;4991834;28;20134;-69
2023/10/30 00:56:41;;;;;;;19.50;3.28;;;;;;;8.04;100.00;98380.22;4991251;28;20544;-69
2023/10/30 00:59:07;;;;;;;13.98;2.08;;;;;;;7.94;100.00;98385.19;4991776;28;20046;-69
2023/10/30 01:01:34;;;;;;;10.27;2.30;;;;;;;8.06;100.00;98377.53;4991007;28;20050;-69
2023/10/30 01:04:01;;;;;;;13.07;2.20;;;;;;;7.97;100.00;98386.78;4989692;28;20108;-69
2023/10/30 01:06:28;;;;;;;11.75;2.50;;;;;;;8.09;100.00;98392.94;4999300;28;20047;-69
2023/10/30 01:08:54;;;;;;;12.25;2.30;;;;;;;7.98;100.00;98398.84;5007710;28;20099;-69
2023/10/30 01:11:21;;;;;;;14.07;2.88;;;;;;;7.93;100.00;98391.34;4992367;28;20061;-69
2023/10/30 01:13:47;;;;;;;12.00;2.55;;;;;;;8.01;100.00;98401.28;4991437;28;20050;-69
2023/10/30 01:16:14;;;;;;;15.20;2.53;;;;;;;7.93;100.00;98396.56;4992660;28;20364;-69
2023/10/30 01:18:41;;;;;;;12.65;2.40;;;;;;;7.95;100.00;98414.69;4997688;28;20793;-69
2023/10/30 01:21:15;;;;;;;12.50;2.85;;;;;;;7.86;100.00;98402.25;4992331;28;20148;-69
2023/10/30 01:23:42;;;;;;;11.75;2.50;;;;;;;7.80;100.00;98411.28;4988966;28;20416;-69
2023/10/30 01:26:08;;;;;;;10.82;2.10;;;;;;;7.75;100.00;98410.72;4991596;28;20057;-69
2023/10/30 01:28:35;;;;;;;12.88;2.42;;;;;;;7.74;100.00;98399.50;4991116;28;20129;-70
2023/10/30 01:31:04;;;;;;;12.50;2.78;;;;;;;7.76;100.00;98418.47;4991511;28;20420;-69
2023/10/30 01:33:31;;;;;;;14.52;3.20;;;;;;;7.68;100.00;98428.50;4992202;28;20082;-69
2023/10/30 01:35:58;;;;;;;10.55;2.63;;;;;;;7.65;100.00;98422.66;4991657;28;20140;-69
2023/10/30 01:38:25;;;;;;;12.45;2.83;;;;;;;7.69;100.00;98419.78;4993116;28;20057;-68
2023/10/30 01:40:52;;;;;;;12.60;2.63;;;;;;;7.64;100.00;98421.00;4991245;28;20050;-68
2023/10/30 01:43:32;;;;;;;9.48;2.50;;;;;;;7.51;100.00;98403.53;4986875;28;20057;-69
2023/10/30 01:45:59;;;;;;;16.40;3.25;;;;;;;7.61;100.00;98424.63;4992821;28;20404;-69
2023/10/30 01:48:28;;;;;;;14.98;2.78;;;;;;;7.52;100.00;98420.81;4990222;28;20054;-69
2023/10/30 01:50:56;;;;;;;10.63;2.78;;;;;;;7.55;100.00;98418.03;4990521;28;20142;-69
2023/10/30 01:53:23;;;;;;;13.38;1.80;;;;;;;7.67;100.00;98426.84;4990754;28;20038;-69
2023/10/30 01:55:51;;;;;;;12.90;2.30;;;;;;;7.54;100.00;98415.50;4990728;28;20084;-69
2023/10/30 01:58:18;;;;;;;13.48;2.00;;;;;;;7.56;100.00;98426.66;4990926;28;20085;-69
2023/10/30 02:00:46;;;;;;;10.70;1.75;;;;;;;7.49;100.00;98415.81;4990447;28;20506;-69
2023/10/30 02:03:13;;;;;;;15.13;2.33;;;;;;;7.48;100.00;98415.91;4989222;28;20086;-69
2023/10/30 02:05:40;;;;;;;7.43;1.75;;;;;;;7.62;100.00;98423.69;4991081;28;20054;-69
2023/10/30 02:08:09;;;;;;;10.65;2.22;;;;;;;7.57;100.00;98420.53;4986031;28;20050;-69
2023/10/30 02:10:36;;;;;;;11.98;3.05;;;;;;;7.59;100.00;98424.72;5001538;28;20050;-69
2023/10/30 02:13:09;;;;;;;15.20;2.80;;;;;;;7.59;100.00;98426.50;4990081;28;20046;-69
2023/10/30 02:15:36;;;;;;;10.48;2.22;;;;;;;7.61;100.00;98422.00;4987343;28;20056;-69
2023/10/30 02:18:03;;;;;;;11.57;2.22;;;;;;;7.54;100.00;98416.38;4989858;28;20141;-69
2023/10/30 02:20:31;;;;;;;12.38;2.70;;;;;;;7.54;100.00;98405.09;4995333;28;20507;-69
2023/10/30 02:22:58;;;;;;;12.45;2.47;;;;;;;7.51;100.00;98413.94;4983976;28;20046;-69
2023/10/30 02:25:25;;;;;;;9.63;2.30;;;;;;;7.59;100.00;98408.25;4990566;28;20054;-69
2023/10/30 02:27:52;;;;;;;8.68;2.10;;;;;;;7.55;100.00;98407.63;4990024;28;20058;-70
2023/10/30 02:30:20;;;;;;;16.27;2.67;;;;;;;7.72;100.00;98416.13;4990355;28;20050;-69
2023/10/30 02:32:47;;;;;;;11.55;2.28;;;;;;;7.66;100.00;98416.53;4986919;28;20129;-68
2023/10/30 02:35:16;;;;;;;12.07;3.97;;;;;;;7.64;100.00;98418.41;4992545;28;20463;-70
2023/10/30 02:37:44;;;;;;;8.60;1.95;;;;;;;7.50;100.00;98404.47;4985864;28;20129;-70
2023/10/30 02:40:11;;;;;;;8.05;1.70;;;;;;;7.72;100.00;98416.13;4988519;28;20050;-69
2023/10/30 02:42:39;;;;;;;23.42;4.57;;;;;;;7.55;100.00;98405.00;4987532;28;20046;-68
2023/10/30 02:45:07;;;;;;;10.13;3.35;;;;;;;7.90;100.00;98425.41;4989367;28;20047;-69
2023/10/30 02:47:34;;;;;;;12.55;2.47;;;;;;;7.68;100.00;98418.09;4993132;28;20096;-69
2023/10/30 02:50:04;;;;;;;12.40;2.45;;;;;;;7.65;100.00;98426.13;4993489;28;20057;-69
2023/10/30 02:52:31;;;;;;;15.45;2.35;;;;;;;7.85;100.00;98424.84;4988693;28;20054;-69
2023/10/30 02:54:58;;;;;;;8.60;2.78;;;;;;;7.86;100.00;98433.50;4989669;28;20042;-70
2023/10/30 02:57:24;;;;;;;10.02;2.05;;;;;;;7.87;100.00;98428.19;4989529;28;20520;-70
2023/10/30 02:59:51;;;;;;;12.20;2.35;;;;;;;7.76;100.00;98430.66;4988783;28;20093;-70
2023/10/30 03:02:18;;;;;;;9.50;2.25;;;;;;;7.83;100.00;98431.13;4985485;28;20617;-70
2023/10/30 03:04:44;;;;;;;13.93;2.58;;;;;;;7.72;100.00;98421.34;4990009;28;20432;-69
2023/10/30 03:07:11;;;;;;;7.80;2.08;;;;;;;8.01;100.00;98429.09;4989537;28;20054;-69
2023/10/30 03:09:38;;;;;;;9.88;2.28;;;;;;;7.77;100.00;98419.28;4989722;28;20507;-69
2023/10/30 03:12:05;;;;;;;10.32;2.35;;;;;;;7.87;100.00;98436.00;4991260;28;20456;-69
2023/10/30 03:14:32;;;;;;;8.70;2.13;;;;;;;7.84;100.00;98436.19;4990109;28;20069;-70
2023/10/30 03:16:59;;;;;;;9.32;2.05;;;;;;;7.77;100.00;98427.97;4993584;28;20132;-70
2023/10/30 03:19:26;;;;;;;13.65;3.17;;;;;;;7.84;100.00;98433.59;4991313;28;20626;-69
2023/10/30 03:21:53;;;;;;;15.45;2.42;;;;;;;7.94;100.00;98431.25;4992285;28;20145;-69
2023/10/30 03:24:19;;;;;;;11.25;2.03;;;;;;;7.91;100.00;98428.84;4990278;28;20054;-69
2023/10/30 03:26:47;;;;;;;10.55;2.70;;;;;;;7.91;100.00;98432.28;4992236;28;20065;-69
2023/10/30 03:29:13;;;;;;;9.43;2.55;;;;;;;7.85;100.00;98426.63;4993483;28;20431;-68
2023/10/30 03:31:40;;;;;;;13.70;2.47;;;;;;;7.84;100.00;98412.75;4989077;28;20076;-69
2023/10/30 03:34:07;;;;;;;15.25;2.83;;;;;;;7.82;100.00;98438.06;4989386;28;20481;-69
2023/10/30 03:36:33;;;;;;;10.73;2.28;;;;;;;7.90;100.00;98432.41;4989518;28;20046;-69
2023/10/30 03:39:00;;;;;;;15.40;3.20;;;;;;;7.85;100.00;98432.69;4993207;28;20065;-69
2023/10/30 03:41:27;;;;;;;11.80;3.97;;;;;;;7.93;100.00;98438.25;4989751;28;20063;-70
2023/10/30 03:43:53;;;;;;;11.80;2.15;;;;;;;7.83;100.00;98431.94;4989658;28;20046;-69
2023/10/30 03:46:20;;;;;;;9.80;2.40;;;;;;;7.96;100.00;98451.06;4993823;28;20050;-70
2023/10/30 03:48:47;;;;;;;11.63;2.38;;;;;;;7.91;100.00;98442.69;4991065;28;20544;-70
2023/10/30 03:51:14;;;;;;;14.43;3.00;;;;;;;7.91;100.00;98441.88;5003769;28;20423;-70
2023/10/30 03:53:40;;;;;;;11.07;2.67;;;;;;;7.72;100.00;98436.97;4993976;28;20363;-69
2023/10/30 03:56:07;;;;;;;11.50;2.47;;;;;;;7.88;100.00;98444.66;4993204;28;20058;-69
2023/10/30 03:58:34;;;;;;;11.18;1.98;;;;;;;7.84;100.00;98446.63;4993472;28;20404;-70
2023/10/30 04:01:09;;;;;;;20.58;3.28;;;;;;;7.83;100.00;98444.13;4992978;28;20054;-70
2023/10/30 04:03:36;;;;;;;16.42;3.13;;;;;;;7.75;100.00;98453.25;4991522;28;20336;-70
2023/10/30 04:06:03;;;;;;;14.55;2.50;;;;;;;7.78;100.00;98455.66;4999759;28;20510;-69
2023/10/30 04:08:30;;;;;;;9.82;2.30;;;;;;;7.71;100.00;98450.94;4993478;28;20480;-70
2023/10/30 04:10:57;;;;;;;16.48;4.05;;;;;;;7.80;100.00;98451.19;4992656;28;20058;-69
2023/10/30 04:13:24;;;;;;;12.50;2.90;;;;;;;7.69;100.00;98453.63;4991415;28;20050;-69
2023/10/30 04:15:50;;;;;;;15.65;2.47;;;;;;;7.79;100.00;98456.50;4992761;28;20101;-69
2023/10/30 04:18:17;;;;;;;17.42;3.70;;;;;;;7.63;100.00;98456.59;4992256;28;20057;-69
2023/10/30 04:20:45;;;;;;;11.52;2.28;;;;;;;7.80;100.00;98458.19;4993575;28;20633;-69
2023/10/30 04:23:11;;;;;;;10.23;2.50;;;;;;;7.74;100.00;98462.00;4983168;28;20059;-69
2023/10/30 04:25:38;;;;;;;17.83;3.13;;;;;;;7.83;100.00;98473.63;4991812;28;20049;-69
2023/10/30 04:28:05;;;;;;;12.45;2.67;;;;;;;7.83;100.00;98468.41;4992395;28;20050;-71
2023/10/30 04:30:31;;;;;;;17.90;4.07;;;;;;;7.74;100.00;98463.78;4995737;28;20404;-70
2023/10/30 04:32:58;;;;;;;14.48;2.75;;;;;;;7.87;100.00;98471.66;4990255;28;20050;-70
2023/10/30 04:35:24;;;;;;;16.48;2.63;;;;;;;7.78;100.00;98468.69;4993831;28;20140;-70
2023/10/30 04:37:51;;;;;;;17.83;2.75;;;;;;;7.89;100.00;98472.41;4996341;28;20058;-70
2023/10/30 04:40:18;;;;;;;12.63;2.83;;;;;;;7.79;100.00;98459.09;4991479;28;20680;-69
2023/10/30 04:42:46;;;;;;;15.60;3.03;;;;;;;7.72;100.00;98466.47;4994172;28;20384;-69
2023/10/30 04:45:12;;;;;;;14.32;3.20;;;;;;;7.58;100.00;98482.94;4984589;28;20050;-69
2023/10/30 04:47:39;;;;;;;12.20;3.17;;;;;;;7.68;100.00;98471.97;4995945;28;20049;-68
2023/10/30 04:50:06;;;;;;;13.15;3.08;;;;;;;7.65;100.00;98473.00;4999243;28;20081;-70
2023/10/30 04:52:33;;;;;;;23.90;3.08;;;;;;;7.71;100.00;98471.78;4988466;28;20050;-70
2023/10/30 04:54:59;;;;;;;32.13;4.63;;;;;;;7.79;100.00;98480.78;4990656;28;20515;-70
2023/10/30 04:57:26;;;;;;;18.42;3.13;;;;;;;7.75;100.00;98473.25;4991630;28;20061;-70
2023/10/30 04:59:53;;;;;;;14.43;3.38;;;;;;;7.75;100.00;98476.69;4991167;28;20046;-70
2023/10/30 05:02:19;;;;;;;17.90;5.03;;;;;;;7.71;100.00;98475.22;4989023;28;20053;-70
2023/10/30 05:04:46;;;;;;;10.00;2.72;;;;;;;7.90;100.00;98476.69;4992177;28;20043;-70
2023/10/30 05:07:12;;;;;;;16.50;2.85;;;;;;;7.79;100.00;98470.38;4998353;28;20066;-69
2023/10/30 05:09:39;;;;;;;16.60;3.10;;;;;;;7.59;100.00;98449.94;4987727;28;20054;-68
2023/10/30 05:12:06;;;;;;;16.48;2.50;;;;;;;7.67;100.00;98472.91;4990366;28;20081;-69
2023/10/30 05:14:33;;;;;;;22.17;3.13;;;;;;;7.50;100.00;98473.94;5005803;28;20046;-69
2023/10/30 05:16:59;;;;;;;14.55;3.47;;;;;;;7.49;100.00;98488.72;4994549;28;20065;-68
2023/10/30 05:19:26;;;;;;;15.30;3.30;;;;;;;7.50;100.00;98482.56;4999376;28;20050;-69
2023/10/30 05:21:53;;;;;;;18.40;3.15;;;;;;;7.52;100.00;98496.34;4995233;28;20054;-69
2023/10/30 05:24:19;;;;;;;12.43;2.83;;;;;;;7.71;100.00;98483.03;4999020;28;20048;-69
2023/10/30 05:26:48;;;;;;;15.30;3.15;;;;;;;7.75;100.00;98474.09;4995177;28;20522;-69
2023/10/30 05:29:15;;;;;;;18.05;3.33;;;;;;;7.58;100.00;98476.91;4990379;28;20481;-68
2023/10/30 05:31:42;;;;;;;15.95;2.97;;;;;;;7.64;100.00;98473.09;4990544;28;20053;-69
2023/10/30 05:34:09;;;;;;;16.85;3.08;;;;;;;7.68;100.00;98488.41;4991158;28;20447;-70
2023/10/30 05:36:36;;;;;;;21.20;4.15;;;;;;;7.59;100.00;98495.03;4990643;28;20480;-70
2023/10/30 05:39:03;;;;;;;17.20;3.10;;;;;;;7.53;100.00;98494.59;4997434;28;20112;-70
2023/10/30 05:41:29;;;;;;;19.35;5.38;;;;;;;7.65;100.00;98490.38;4990994;28;20062;-70
2023/10/30 05:43:56;;;;;;;16.40;3.88;;;;;;;7.77;100.00;98490.47;4989670;28;20566;-69
2023/10/30 05:46:23;;;;;;;17.45;3.30;;;;;;;7.79;100.00;98496.44;4990423;28;20535;-69
2023/10/30 05:48:50;;;;;;;14.43;3.55;;;;;;;7.73;100.00;98480.34;4989935;28;20054;-69
2023/10/30 05:51:17;;;;;;;12.80;2.75;;;;;;;7.96;100.00;98494.53;4990823;28;20504;-69
2023/10/30 05:53:43;;;;;;;20.23;3.53;;;;;;;8.07;100.00;98496.47;4990590;28;20393;-69
2023/10/30 05:56:10;;;;;;;16.70;3.95;;;;;;;7.94;100.00;98499.00;4990749;28;20043;-69
2023/10/30 05:58:36;;;;;;;16.92;3.30;;;;;;;7.89;100.00;98495.84;4989752;28;20050;-70
2023/10/30 06:01:04;;;;;;;23.52;3.53;;;;;;;7.98;100.00;98497.88;4996408;28;20404;-69
2023/10/30 06:03:31;;;;;;;21.38;3.85;;;;;;;7.94;100.00;98506.81;4989882;28;20050;-69
2023/10/30 06:05:57;;;;;;;14.65;3.13;;;;;;;7.92;100.00;98508.69;4989865;28;20431;-69
2023/10/30 06:08:24;;;;;;;14.07;2.30;;;;;;;8.10;100.00;98509.31;4989545;28;20054;-69
2023/10/30 06:10:51;;;;;;;15.48;3.15;;;;;;;8.18;100.00;98518.31;4989638;28;20476;-69
2023/10/30 06:13:18;;;;;;;16.15;3.83;;;;;;;8.05;100.00;98501.75;4988378;28;20053;-69
2023/10/30 06:15:45;;;;;;;17.13;3.63;;;;;;;7.78;100.00;98509.53;4994395;28;20046;-69
2023/10/30 06:18:12;;;;;;;15.20;3.05;;;;;;;7.95;100.00;98522.38;4991074;28;20600;-69
2023/10/30 06:20:38;;;;;;;17.17;3.38;;;;;;;7.95;100.00;98514.56;4990348;28;20065;-69
2023/10/30 06:23:05;;;;;;;16.40;3.80;;;;;;;7.85;100.00;98516.03;4988809;28;20515;-69
2023/10/30 06:25:31;;;;;;;22.55;3.97;;;;;;;7.77;100.00;98520.88;4990725;28;20049;-69
2023/10/30 06:27:58;;;;;;;19.15;3.08;;;;;;;7.96;100.00;98518.81;4990515;28;20046;-69
2023/10/30 06:30:25;;;;;;;22.25;5.70;;;;;;;7.97;100.00;98509.25;4990893;28;20050;-69
2023/10/30 06:32:51;;;;;;;20.40;4.30;;;;;;;7.96;100.00;98520.59;4991650;28;20051;-69
2023/10/30 06:35:18;;;;;;;14.48;2.83;;;;;;;7.94;100.00;98515.47;4993644;28;20050;-69
2023/10/30 06:37:45;;;;;;;15.70;3.90;;;;;;;7.80;100.00;98534.56;4990067;28;20050;-69
2023/10/30 06:40:12;;;;;;;19.10;3.88;;;;;;;7.75;100.00;98540.97;4989217;28;20400;-69
2023/10/30 06:42:39;;;;;;;19.15;3.67;;;;;;;7.89;100.00;98538.38;4985225;28;20050;-69
2023/10/30 06:45:07;;;;;;;19.55;3.70;;;;;;;7.88;100.00;98541.06;4996033;28;20146;-69
2023/10/30 06:47:34;;;;;;;15.43;2.97;;;;;;;7.91;100.00;98543.50;4989211;28;20378;-69
2023/10/30 06:50:02;;;;;;;13.98;3.22;;;;;;;8.01;100.00;98551.59;4985785;28;20050;-70
2023/10/30 06:52:29;;;;;;;24.67;3.40;;;;;;;7.78;100.00;98551.22;4984843;28;20046;-70
2023/10/30 06:54:56;;;;;;;17.10;3.33;;;;;;;7.79;100.00;98550.28;4988207;28;20069;-68
2023/10/30 06:57:22;;;;;;;41.65;5.63;;;;;;;7.81;100.00;98566.69;4989734;28;20058;-68
2023/10/30 06:59:52;;;;;;;22.02;4.20;;;;;;;7.63;100.00;98568.59;4989572;28;20485;-68
2023/10/30 07:02:19;;;;;;;18.10;4.40;;;;;;;7.58;100.00;98587.13;4986427;28;20484;-69
2023/10/30 07:04:46;;;;;;;16.00;2.97;;;;;;;7.73;100.00;98579.31;4989489;28;20121;-69
2023/10/30 07:07:13;;;;;;;15.65;3.78;;;;;;;7.80;100.00;98581.44;4989328;28;20086;-69
2023/10/30 07:09:40;;;;;;;27.20;5.72;;;;;;;7.54;100.00;98558.75;4988532;28;21180;-69
2023/10/30 07:12:07;;;;;;;19.88;3.20;;;;;;;7.77;100.00;98592.06;4987217;28;20504;-69
2023/10/30 07:14:35;;;;;;;18.15;4.82;;;;;;;7.54;100.00;98600.41;4987536;28;20054;-69
2023/10/30 07:17:02;;;;;;;23.33;4.15;;;;;;;7.66;100.00;98584.06;4991587;28;20050;-69
2023/10/30 07:19:31;;;;;;;16.77;4.13;;;;;;;7.62;100.00;98595.59;4990996;28;20054;-68
2023/10/30 07:21:58;;;;;;;14.82;3.45;;;;;;;7.74;100.00;98596.63;4991478;28;20129;-68
2023/10/30 07:24:24;;;;;;;18.02;3.70;;;;;;;7.90;100.00;98589.56;4994042;28;20074;-67
2023/10/30 07:26:51;;;;;;;20.75;4.55;;;;;;;7.83;100.00;98587.44;4991942;28;20042;-70
2023/10/30 07:29:18;;;;;;;14.95;3.53;;;;;;;7.96;100.00;98589.16;4993197;28;20163;-68
2023/10/30 07:31:45;;;;;;;19.52;3.85;;;;;;;7.85;100.00;98601.19;4992112;28;20054;-70
2023/10/30 07:34:11;;;;;;;20.17;3.65;;;;;;;7.77;100.00;98596.44;4993158;28;20101;-70
2023/10/30 07:36:38;;;;;;;16.95;3.83;;;;;;;7.96;100.00;98594.38;4991819;28;20408;-67
2023/10/30 07:39:07;;;;;;;16.73;3.67;;;;;;;7.95;100.00;98610.97;4991729;28;20047;-68
2023/10/30 07:41:37;;;;;;;17.77;4.00;;;;;;;8.03;100.00;98610.50;4992415;28;20095;-68
2023/10/30 07:44:04;;;;;;;24.45;4.13;;;;;;;7.97;100.00;98621.31;4989986;28;20046;-68
2023/10/30 07:46:31;;;;;;;25.33;3.95;;;;;;;7.94;100.00;98627.53;4992919;28;20065;-69
2023/10/30 07:49:01;;;;;;;24.60;4.53;;;;;;;7.88;100.00;98629.66;4988806;28;20141;-68
2023/10/30 07:51:28;;;;;;;28.33;4.38;;;;;;;7.94;100.00;98611.88;4993196;28;20050;-68
2023/10/30 07:53:55;;;;;;;15.32;3.42;;;;;;;7.95;100.00;98610.09;4992069;28;20077;-68
2023/10/30 07:56:21;;;;;;;21.17;4.15;;;;;;;7.88;100.00;98606.19;4993503;28;20052;-68
2023/10/30 07:58:48;;;;;;;18.77;4.18;;;;;;;7.79;100.00;98607.59;4992751;28;20057;-68
2023/10/30 08:01:18;;;;;;;27.20;4.30;;;;;;;7.70;100.00;98610.75;4992932;28;20385;-68
2023/10/30 08:03:46;;;;;;;20.05;4.15;;;;;;;7.82;100.00;98628.25;4987477;28;20054;-69
2023/10/30 08:06:13;;;;;;;21.77;5.07;;;;;;;7.96;100.00;98619.63;4992358;28;20432;-68
2023/10/30 08:08:39;;;;;;;24.52;5.57;;;;;;;7.88;100.00;98638.31;4992576;28;20046;-68
2023/10/30 08:11:06;;;;;;;19.42;5.65;;;;;;;7.88;100.00;98630.50;4991870;28;20054;-69
2023/10/30 08:13:33;;;;;;;33.33;4.82;;;;;;;7.91;100.00;98634.69;4990469;28;20054;-68
2023/10/30 08:16:00;;;;;;;22.17;3.95;;;;;;;7.98;100.00;98639.47;4992900;28;20038;-68
2023/10/30 08:18:27;;;;;;;17.58;3.50;;;;;;;8.12;100.00;98651.63;4985789;28;20065;-68
2023/10/30 08:20:57;;;;;;;19.27;4.45;;;;;;;7.90;100.00;98640.84;4992837;28;20046;-68
2023/10/30 08:23:36;;;;;;;18.98;3.72;;;;;;;8.14;100.00;98662.81;4981070;28;20070;-69
2023/10/30 08:26:05;;;;;;;14.07;3.17;;;;;;;8.30;100.00;98667.91;4992968;28;20080;-68
2023/10/30 08:28:32;;;;;;;22.88;4.65;;;;;;;8.24;100.00;98663.09;4990704;28;20480;-68
2023/10/30 08:30:59;;;;;;;12.00;3.13;;;;;;;8.27;100.00;98655.09;4991164;28;20109;-68
2023/10/30 08:33:26;;;;;;;19.15;4.03;;;;;;;8.33;100.00;98670.34;4988319;28;20053;-69
2023/10/30 08:35:53;;;;;;;17.52;3.47;;;;;;;8.32;100.00;98671.28;4991721;28;20389;-68
2023/10/30 08:38:20;;;;;;;19.30;3.92;;;;;;;8.25;100.00;98667.38;4992528;28;20404;-69
2023/10/30 08:40:47;;;;;;;18.23;4.40;;;;;;;8.14;100.00;98680.22;4991793;28;20443;-69
2023/10/30 08:43:13;;;;;;;13.98;3.42;;;;;;;8.29;100.00;98671.47;4985153;28;20046;-69
2023/10/30 08:45:41;;;;;;;23.70;4.50;;;;;;;8.13;100.00;98681.97;4989135;28;20042;-69
2023/10/30 08:48:10;;;;;;;21.20;3.80;;;;;;;8.18;100.00;98685.16;4992091;28;20073;-69
2023/10/30 08:50:45;;;;;;;18.92;3.38;;;;;;;8.29;100.00;98679.28;4991038;28;20061;-70
2023/10/30 08:53:12;;;;;;;21.58;3.50;;;;;;;8.22;100.00;98684.97;4990546;28;20485;-69
2023/10/30 08:55:41;;;;;;;19.17;3.35;;;;;;;8.24;100.00;98690.94;4990605;28;20054;-69
2023/10/30 08:58:07;;;;;;;16.95;3.25;;;;;;;8.28;100.00;98697.63;4991161;28;20589;-69
2023/10/30 09:00:35;;;;;;;15.77;3.15;;;;;;;8.41;100.00;98703.78;4991691;28;20129;-70
2023/10/30 09:03:03;;;;;;;18.65;4.30;;;;;;;8.40;100.00;98701.28;4984052;28;20046;-69
2023/10/30 09:05:30;;;;;;;14.20;3.15;;;;;;;8.54;100.00;98703.91;4991206;28;20097;-70
2023/10/30 09:07:57;;;;;;;15.07;3.13;;;;;;;8.60;100.00;98713.94;4991944;28;20169;-70
2023/10/30 09:10:28;;;;;;;15.05;3.15;;;;;;;8.60;100.00;98710.50;4995255;28;20416;-69
2023/10/30 09:12:55;;;;;;;16.60;3.42;;;;;;;8.63;100.00;98725.97;4990739;28;20056;-69
2023/10/30 09:15:22;;;;;;;14.40;2.75;;;;;;;8.79;100.00;98723.25;4991710;28;20050;-69
2023/10/30 09:17:49;;;;;;;16.45;3.03;;;;;;;8.88;100.00;98722.66;4991159;28;20046;-69
2023/10/30 09:20:16;;;;;;;16.60;2.80;;;;;;;8.77;100.00;98720.72;4983551;28;20078;-70
2023/10/30 09:22:43;;;;;;;15.02;3.13;;;;;;;8.82;100.00;98717.81;4989881;28;20042;-68
2023/10/30 09:25:09;;;;;;;17.75;4.35;;;;;;;8.89;100.00;98719.97;4992965;28;20050;-68
2023/10/30 09:27:37;;;;;;;15.52;3.40;;;;;;;8.81;100.00;98718.78;4987641;28;20488;-69
2023/10/30 09:30:06;;;;;;;15.07;4.53;;;;;;;8.59;100.00;98738.38;4989490;28;20050;-69
2023/10/30 09:32:33;;;;;;;14.55;3.05;;;;;;;8.70;100.00;98740.31;4989299;28;20076;-69
2023/10/30 09:34:59;;;;;;;17.20;3.25;;;;;;;8.82;100.00;98746.53;4983064;28;20089;-68
2023/10/30 09:37:26;;;;;;;18.65;3.25;;;;;;;8.88;100.00;98733.94;4990727;28;20050;-68
2023/10/30 09:39:53;;;;;;;15.48;3.28;;;;;;;8.96;100.00;98741.31;4989237;28;20485;-69
2023/10/30 09:42:19;;;;;;;15.95;3.33;;;;;;;9.05;100.00;98745.13;4986720;28;20125;-70
2023/10/30 09:44:46;;;;;;;13.80;2.83;;;;;;;8.95;100.00;98736.19;4988245;28;20065;-69
2023/10/30 09:47:14;;;;;;;14.50;3.17;;;;;;;8.98;100.00;98739.44;4983017;28;20054;-69
2023/10/30 09:49:43;;;;;;;16.08;3.88;;;;;;;9.00;100.00;98736.72;4991104;28;20388;-69
2023/10/30 09:52:11;;;;;;;15.80;3.35;;;;;;;8.95;100.00;98739.63;4983005;28;20492;-69
2023/10/30 09:54:38;;;;;;;23.30;4.53;;;;;;;8.85;100.00;98741.13;4984813;28;20047;-69
2023/10/30 09:57:07;;;;;;;15.88;3.03;;;;;;;8.79;100.00;98741.50;4985035;28;20054;-70
2023/10/30 09:59:36;;;;;;;26.40;5.13;;;;;;;8.95;100.00;98751.84;4990478;28;20062;-70
2023/10/30 10:02:03;;;;;;;18.20;2.90;;;;;;;9.04;100.00;98753.88;4989719;28;20193;-70
2023/10/30 10:04:31;;;;;;;16.23;3.33;;;;;;;9.12;100.00;98762.91;4990794;28;20057;-70
2023/10/30 10:06:58;;;;;;;17.70;4.00;;;;;;;9.10;100.00;98756.94;4990435;28;20125;-72
2023/10/30 10:09:25;;;;;;;15.10;3.60;;;;;;;8.93;100.00;98767.59;4990291;28;20411;-73
2023/10/30 10:11:52;;;;;;;15.00;3.10;;;;;;;8.90;100.00;98762.56;4989122;28;20053;-73
2023/10/30 10:14:20;;;;;;;15.23;3.72;;;;;;;9.07;100.00;98785.84;5004194;28;20065;-74
2023/10/30 10:16:47;;;;;;;16.27;3.25;;;;;;;8.95;100.00;98784.00;4986233;28;20046;-72
2023/10/30 10:19:22;;;;;;;15.48;2.53;;;;;;;8.91;100.00;98793.78;4984627;28;20536;-72
2023/10/30 10:21:50;;;;;;;13.45;2.90;;;;;;;8.88;100.00;98795.75;4988314;28;20121;-74
2023/10/30 10:24:37;;;;;;;12.07;2.80;;;;;;;9.32;100.00;98792.97;4989869;28;20506;-73
2023/10/30 10:27:06;;;;;;;13.10;3.08;;;;;;;9.17;100.00;98791.34;4984828;28;20420;-73
2023/10/30 10:29:33;;;;;;;13.18;3.15;;;;;;;9.28;100.00;98769.75;4988931;28;20078;-74
2023/10/30 10:32:00;;;;;;;15.50;2.80;;;;;;;9.24;100.00;98770.88;4988048;28;20138;-73
2023/10/30 10:34:31;;;;;;;13.70;3.30;;;;;;;9.05;100.00;98776.44;4988556;28;20042;-73
2023/10/30 10:36:59;;;;;;;15.68;2.85;;;;;;;8.99;100.00;98767.19;4993699;28;20038;-73
2023/10/30 10:39:26;;;;;;;13.43;2.85;;;;;;;9.06;100.00;98752.00;4986503;28;20652;-74
2023/10/30 10:41:54;;;;;;;11.38;2.90;;;;;;;9.23;100.00;98762.22;4988874;28;20058;-74
2023/10/30 10:44:22;;;;;;;12.75;2.45;;;;;;;9.26;100.00;98764.63;4991060;28;20141;-74
2023/10/30 10:46:49;;;;;;;11.40;2.72;;;;;;;9.20;100.00;98754.56;4990322;28;20075;-73
2023/10/30 10:49:15;;;;;;;13.30;3.20;;;;;;;9.45;100.00;98747.78;4989625;28;20177;-72
2023/10/30 10:51:46;;;;;;;14.02;2.60;;;;;;;9.65;100.00;98743.84;4988908;28;20050;-66
2023/10/30 10:54:23;;;;;;;16.67;3.38;;;;;;;9.56;100.00;98726.16;4987273;28;20108;-67
2023/10/30 10:56:53;;;;;;;16.90;3.28;;;;;;;9.64;100.00;98743.03;4988454;28;20046;-68
2023/10/30 10:59:25;;;;;;;19.45;4.05;;;;;;;9.60;100.00;98730.28;4989289;28;20058;-66
2023/10/30 11:01:55;;;;;;;11.32;2.42;;;;;;;9.72;100.00;98739.94;4989418;28;20052;-68
2023/10/30 11:04:23;;;;;;;12.07;2.72;;;;;;;9.68;100.00;98727.97;4989725;28;21155;-67
2023/10/30 11:06:56;;;;;;;12.07;3.35;;;;;;;9.61;100.00;98732.75;4988924;28;20050;-66
2023/10/30 11:09:33;;;;;;;12.07;2.53;;;;;;;9.57;100.00;98727.84;4989866;28;20505;-67
2023/10/30 11:12:12;;;;;;;14.85;2.83;;;;;;;9.58;100.00;98743.44;4988891;28;20497;-68
2023/10/30 11:14:52;;;;;;;12.38;2.88;;;;;;;9.68;100.00;98744.53;4987824;28;20054;-67
2023/10/30 11:17:18;;;;;;;17.10;2.58;;;;;;;9.79;100.00;98751.66;4989389;28;20042;-67
2023/10/30 11:19:46;;;;;;;9.63;2.80;;;;;;;9.55;100.00;98750.63;4990461;28;20054;-67
2023/10/30 11:22:39;;;;;;;15.70;2.92;;;;;;;9.79;100.00;98756.88;4985078;28;20058;-67
2023/10/30 11:25:53;;;;;;;17.02;3.95;;;;;;;9.39;100.00;98762.06;4990302;28;20050;-67
2023/10/30 11:28:22;;;;;;;12.13;2.67;;;;;;;9.58;100.00;98766.94;4989094;28;20113;-68